Time;durP1;ratioP1;P1;durP2;ratioP2;P2;SDS_P1;SDS_P2;PMS_P1;PMS_P2;Temp;Humidity;BMP_temperature;BMP_pressure;BME280_temperature;BME280_humidity;BME280_pressure;Samples;Min_cycle;Max_cycle;Signal;HPM_P1;HPM_P2
2023/11/25 00:00:45;;;;;;;2.83;1.50;;;;;;;0.69;68.27;100805.75;5007593;28;20080;-45
2023/11/25 00:03:12;;;;;;;6.55;2.20;;;;;;;0.68;67.63;100798.03;5005353;28;20046;-44
2023/11/25 00:05:39;;;;;;;6.30;3.17;;;;;;;0.66;68.28;100794.50;4996866;28;20046;-43
2023/11/25 00:08:06;;;;;;;8.70;1.30;;;;;;;0.62;68.76;100789.28;5002298;28;20060;-49
2023/11/25 00:10:33;;;;;;;1.50;1.05;;;;;;;0.62;68.35;100790.94;5003159;28;20125;-43
2023/11/25 00:13:01;;;;;;;4.82;3.33;;;;;;;0.62;68.29;100793.50;4998534;28;20043;-45
2023/11/25 00:15:28;;;;;;;2.67;1.33;;;;;;;0.59;68.94;100785.69;4999187;28;20065;-41
2023/11/25 00:17:55;;;;;;;8.88;3.95;;;;;;;0.58;68.42;100795.00;4997815;28;20057;-47
2023/11/25 00:20:25;;;;;;;6.43;2.83;;;;;;;0.57;67.64;100800.03;5000546;28;20642;-44
2023/11/25 00:22:52;;;;;;;6.30;1.35;;;;;;;0.56;68.27;100799.16;5002014;28;20049;-45
2023/11/25 00:25:19;;;;;;;4.93;1.92;;;;;;;0.55;68.28;100801.63;5002992;28;20137;-48
2023/11/25 00:27:46;;;;;;;2.63;1.17;;;;;;;0.50;68.75;100799.72;5000077;28;20057;-44
2023/11/25 00:30:14;;;;;;;4.45;1.65;;;;;;;0.50;68.73;100788.63;5000952;28;20065;-45
2023/11/25 00:32:41;;;;;;;2.42;1.42;;;;;;;0.48;67.54;100787.69;4997360;28;20493;-48
2023/11/25 00:35:08;;;;;;;2.53;1.85;;;;;;;0.46;68.06;100781.63;4996584;28;20054;-42
2023/11/25 00:37:35;;;;;;;7.65;2.40;;;;;;;0.45;67.62;100796.06;4998071;28;20056;-47
2023/11/25 00:40:04;;;;;;;5.25;1.55;;;;;;;0.44;68.13;100794.28;5002688;28;20049;-43
2023/11/25 00:42:31;;;;;;;3.25;2.08;;;;;;;0.41;68.29;100783.97;4997587;28;20046;-48
2023/11/25 00:44:58;;;;;;;2.17;1.33;;;;;;;0.41;69.01;100778.00;5003795;28;20038;-43
2023/11/25 00:47:27;;;;;;;3.95;1.42;;;;;;;0.40;67.78;100789.84;5004486;28;20233;-41
2023/11/25 00:49:55;;;;;;;4.72;2.70;;;;;;;0.39;69.16;100790.66;5012946;28;20538;-45
2023/11/25 00:52:22;;;;;;;2.88;2.65;;;;;;;0.36;68.86;100791.38;5018984;28;20494;-45
2023/11/25 00:54:48;;;;;;;3.90;3.35;;;;;;;0.36;68.35;100795.59;4997809;28;20054;-44
2023/11/25 00:57:15;;;;;;;3.35;2.05;;;;;;;0.34;69.37;100799.75;4996749;28;20420;-43
2023/11/25 00:59:42;;;;;;;3.25;2.08;;;;;;;0.36;69.08;100800.69;5001445;28;20104;-46
2023/11/25 01:02:08;;;;;;;3.78;1.67;;;;;;;0.34;69.28;100805.69;4998049;28;20061;-47
2023/11/25 01:04:38;;;;;;;4.15;1.58;;;;;;;0.33;68.78;100800.53;4999505;28;20104;-45
2023/11/25 01:07:05;;;;;;;5.28;1.77;;;;;;;0.31;69.21;100792.81;4997883;28;20053;-48
2023/11/25 01:09:34;;;;;;;5.88;1.80;;;;;;;0.31;68.96;100791.94;4999605;28;20145;-44
2023/11/25 01:12:01;;;;;;;3.70;2.13;;;;;;;0.29;69.69;100793.53;5001183;28;20074;-46
2023/11/25 01:14:27;;;;;;;6.43;2.63;;;;;;;0.27;68.81;100785.78;5007944;28;20045;-46
2023/11/25 01:16:54;;;;;;;4.60;1.10;;;;;;;0.28;69.53;100791.78;4990188;28;20496;-49
2023/11/25 01:19:21;;;;;;;7.07;2.78;;;;;;;0.26;69.77;100786.59;5006134;28;20081;-44
2023/11/25 01:21:48;;;;;;;4.57;1.85;;;;;;;0.25;69.00;100788.28;4996696;28;20467;-43
2023/11/25 01:24:14;;;;;;;2.65;1.60;;;;;;;0.27;69.97;100784.94;4993489;28;20070;-46
2023/11/25 01:26:42;;;;;;;2.67;1.33;;;;;;;0.25;69.82;100792.50;4993727;28;20061;-46
2023/11/25 01:29:09;;;;;;;5.93;1.60;;;;;;;0.24;70.18;100786.50;4994932;28;20124;-42
2023/11/25 01:31:37;;;;;;;5.70;1.83;;;;;;;0.25;69.82;100793.38;4995031;28;20495;-45
2023/11/25 01:34:04;;;;;;;6.65;2.55;;;;;;;0.22;70.13;100793.22;4996441;28;20049;-46
2023/11/25 01:36:32;;;;;;;6.60;0.95;;;;;;;0.22;69.96;100795.78;5027900;28;20049;-44
2023/11/25 01:38:59;;;;;;;5.63;1.38;;;;;;;0.23;69.74;100800.06;5007961;28;20076;-41
2023/11/25 01:41:27;;;;;;;3.20;2.75;;;;;;;0.22;70.24;100794.88;4998948;28;20058;-47
2023/11/25 01:43:54;;;;;;;6.60;1.70;;;;;;;0.20;70.54;100799.91;4997863;28;20510;-48
2023/11/25 01:49:07;;;;;;;5.45;2.55;;;;;;;0.21;69.81;100801.63;5081915;27;20393;-46
2023/11/25 01:51:43;;;;;;;5.85;3.35;;;;;;;0.21;70.67;100803.34;5060984;28;20124;-50
2023/11/25 01:54:14;;;;;;;3.67;2.78;;;;;;;0.21;70.27;100806.72;5066866;28;20440;-43
2023/11/25 01:56:46;;;;;;;7.75;2.83;;;;;;;0.18;70.14;100800.63;5060243;28;20048;-44
2023/11/25 01:59:15;;;;;;;3.83;2.67;;;;;;;0.21;70.63;100809.28;5064811;28;20464;-44
2023/11/25 02:01:44;;;;;;;5.75;1.50;;;;;;;0.20;69.73;100806.69;5062968;28;20040;-45
2023/11/25 02:04:13;;;;;;;6.10;2.85;;;;;;;0.23;70.09;100804.28;5048880;28;20064;-45
2023/11/25 02:06:41;;;;;;;8.65;1.67;;;;;;;0.22;69.98;100802.53;5060524;28;20041;-48
2023/11/25 02:09:08;;;;;;;3.08;2.50;;;;;;;0.19;70.51;100802.34;5053193;28;20080;-50
2023/11/25 02:11:56;;;;;;;5.40;1.23;;;;;;;0.19;70.89;100807.47;5051056;28;20053;-46
2023/11/25 02:14:25;;;;;;;3.30;1.17;;;;;;;0.19;70.39;100808.34;5042112;28;20045;-44
2023/11/25 02:16:52;;;;;;;3.13;2.55;;;;;;;0.17;70.26;100820.13;5044575;28;20492;-44
2023/11/25 02:19:20;;;;;;;4.90;1.17;;;;;;;0.12;70.67;100817.34;5044993;28;20052;-46
2023/11/25 02:21:47;;;;;;;2.08;1.48;;;;;;;0.13;70.68;100810.56;5047767;28;20091;-41
2023/11/25 02:24:14;;;;;;;6.97;1.77;;;;;;;0.15;70.72;100805.56;5035614;28;20119;-47
2023/11/25 02:26:41;;;;;;;3.22;0.98;;;;;;;0.14;70.50;100808.91;5052235;28;20063;-48
2023/11/25 02:29:07;;;;;;;4.88;1.15;;;;;;;0.15;69.71;100811.53;5045369;28;20049;-44
2023/11/25 02:31:34;;;;;;;3.40;1.67;;;;;;;0.11;70.48;100809.63;5045800;28;20496;-46
2023/11/25 02:34:01;;;;;;;4.25;2.78;;;;;;;0.15;69.99;100805.56;5047250;28;20053;-48
2023/11/25 02:36:27;;;;;;;6.00;2.83;;;;;;;0.14;70.15;100803.81;5043121;28;20541;-42
2023/11/25 02:38:54;;;;;;;3.78;2.15;;;;;;;0.12;70.86;100806.28;5040592;28;20415;-46
2023/11/25 02:41:21;;;;;;;3.95;2.00;;;;;;;0.12;70.45;100808.81;5044673;28;20517;-44
2023/11/25 02:43:47;;;;;;;3.30;1.58;;;;;;;0.10;70.22;100805.34;5044413;28;20045;-43
2023/11/25 02:46:14;;;;;;;4.05;3.13;;;;;;;0.08;70.48;100794.16;5044108;28;20068;-44
2023/11/25 02:48:41;;;;;;;3.65;1.35;;;;;;;0.08;70.66;100804.38;5044856;28;20051;-47
2023/11/25 02:51:08;;;;;;;4.00;1.35;;;;;;;0.07;69.92;100798.38;5042849;28;20049;-43
2023/11/25 02:53:35;;;;;;;4.85;2.00;;;;;;;0.06;70.11;100801.72;5047953;28;20106;-43
2023/11/25 02:56:02;;;;;;;2.72;2.25;;;;;;;0.07;70.46;100797.53;5045504;28;20382;-48
2023/11/25 02:58:30;;;;;;;6.35;1.73;;;;;;;0.06;70.23;100801.72;5036635;28;20048;-46
2023/11/25 03:01:01;;;;;;;4.38;1.65;;;;;;;0.07;70.41;100797.53;5031556;28;20059;-43
2023/11/25 03:03:28;;;;;;;4.78;2.15;;;;;;;0.07;70.31;100805.16;5016129;28;20046;-42
2023/11/25 03:05:55;;;;;;;3.55;1.02;;;;;;;0.03;70.97;100803.25;5029195;28;20058;-45
2023/11/25 03:08:22;;;;;;;4.63;1.02;;;;;;;0.02;71.15;100806.56;5030267;28;20053;-42
2023/11/25 03:10:50;;;;;;;3.67;1.33;;;;;;;0.05;70.91;100805.09;5025568;28;20506;-42
2023/11/25 03:13:17;;;;;;;4.57;0.98;;;;;;;0.04;71.20;100802.44;5030971;28;20056;-43
2023/11/25 03:15:45;;;;;;;2.80;0.88;;;;;;;0.01;70.38;100797.19;5029089;28;20564;-47
2023/11/25 03:18:11;;;;;;;2.95;1.05;;;;;;;-0.02;71.28;100803.00;5024792;28;20129;-44
2023/11/25 03:20:40;;;;;;;4.95;1.80;;;;;;;0.02;70.70;100804.03;5032328;28;20502;-47
2023/11/25 03:23:06;;;;;;;2.70;1.65;;;;;;;0.03;70.62;100810.91;5026290;28;20166;-48
2023/11/25 03:25:34;;;;;;;6.18;1.58;;;;;;;0.03;70.97;100810.91;5040296;28;20068;-42
2023/11/25 03:28:04;;;;;;;6.13;1.02;;;;;;;0.02;70.56;100804.03;5032862;28;20136;-42
2023/11/25 03:30:31;;;;;;;4.50;1.60;;;;;;;0.02;70.67;100804.03;5026452;28;20064;-41
2023/11/25 03:32:58;;;;;;;2.83;1.25;;;;;;;0.02;70.77;100794.72;5026869;28;20050;-41
2023/11/25 03:35:25;;;;;;;2.17;1.17;;;;;;;0.00;70.95;100796.34;5040521;28;20063;-43
2023/11/25 03:37:52;;;;;;;4.35;1.58;;;;;;;-0.02;70.48;100798.81;5036229;28;20045;-47
2023/11/25 03:40:18;;;;;;;5.88;1.77;;;;;;;-0.03;70.59;100791.94;5028168;28;20096;-43
2023/11/25 03:42:45;;;;;;;2.75;1.42;;;;;;;-0.05;70.99;100788.44;5028271;28;20080;-46
2023/11/25 03:45:12;;;;;;;3.42;1.88;;;;;;;-0.07;70.92;100787.47;5026059;28;20047;-42
2023/11/25 03:47:41;;;;;;;6.15;2.58;;;;;;;-0.07;70.62;100795.13;5021148;28;20506;-46
2023/11/25 03:50:09;;;;;;;3.20;2.30;;;;;;;-0.09;70.39;100791.63;5006102;28;20096;-46
2023/11/25 03:52:35;;;;;;;5.22;2.65;;;;;;;-0.10;71.01;100794.94;5023432;28;20053;-45
2023/11/25 03:55:03;;;;;;;5.45;2.25;;;;;;;-0.10;71.22;100792.41;5029412;28;20049;-43
2023/11/25 03:57:29;;;;;;;4.47;2.97;;;;;;;-0.12;70.98;100791.47;5030282;28;20064;-44
2023/11/25 03:59:56;;;;;;;4.55;2.75;;;;;;;-0.13;70.92;100795.66;5027481;28;20525;-44
2023/11/25 04:02:23;;;;;;;5.45;2.25;;;;;;;-0.14;71.19;100788.81;5026797;28;20464;-42
2023/11/25 04:04:50;;;;;;;5.85;3.30;;;;;;;-0.14;71.12;100790.50;5027490;28;20110;-43
2023/11/25 04:07:18;;;;;;;6.32;1.60;;;;;;;-0.15;71.44;100789.63;5033045;28;20136;-42
2023/11/25 04:09:45;;;;;;;5.00;2.08;;;;;;;-0.15;70.49;100791.28;5026445;28;20037;-44
2023/11/25 04:12:11;;;;;;;4.75;2.58;;;;;;;-0.18;71.39;100793.66;5022290;28;20458;-49
2023/11/25 04:14:38;;;;;;;3.10;1.33;;;;;;;-0.20;70.97;100787.63;5025559;28;20498;-46
2023/11/25 04:17:05;;;;;;;3.28;2.42;;;;;;;-0.22;71.00;100790.09;5024980;28;20683;-46
2023/11/25 04:19:33;;;;;;;2.35;1.20;;;;;;;-0.21;71.25;100790.97;5021676;28;20054;-47
2023/11/25 04:22:00;;;;;;;3.55;1.75;;;;;;;-0.22;71.37;100784.13;5027722;28;20052;-41
2023/11/25 04:24:27;;;;;;;5.43;2.45;;;;;;;-0.24;71.08;100788.28;5030393;28;20168;-47
2023/11/25 04:26:54;;;;;;;5.40;3.38;;;;;;;-0.26;71.42;100773.75;5026568;28;20049;-44
2023/11/25 04:29:20;;;;;;;7.90;3.83;;;;;;;-0.27;71.37;100771.16;5027229;28;20521;-44
2023/11/25 04:31:50;;;;;;;6.57;3.60;;;;;;;-0.31;71.13;100767.56;5026039;28;20053;-44
2023/11/25 04:34:17;;;;;;;6.65;2.03;;;;;;;-0.33;70.81;100766.63;5022501;28;20060;-46
2023/11/25 04:36:44;;;;;;;5.53;1.30;;;;;;;-0.35;71.43;100763.09;5018127;28;20140;-44
2023/11/25 04:39:10;;;;;;;4.97;4.13;;;;;;;-0.36;71.21;100771.53;5027091;28;20041;-45
2023/11/25 04:41:41;;;;;;;7.35;1.75;;;;;;;-0.36;71.64;100775.75;5022884;28;20048;-53
2023/11/25 04:44:08;;;;;;;4.32;1.77;;;;;;;-0.38;71.65;100769.72;5024989;28;20053;-47
2023/11/25 04:46:35;;;;;;;5.80;3.40;;;;;;;-0.42;71.04;100761.03;5028601;28;20049;-43
2023/11/25 04:49:04;;;;;;;3.05;1.23;;;;;;;-0.43;71.32;100769.47;5032131;28;20038;-43
2023/11/25 04:51:31;;;;;;;9.90;2.45;;;;;;;-0.44;71.17;100767.72;5027272;28;20405;-42
2023/11/25 04:53:58;;;;;;;3.50;2.05;;;;;;;-0.46;71.50;100764.19;5022445;28;20062;-44
2023/11/25 04:56:25;;;;;;;2.97;1.85;;;;;;;-0.46;71.21;100764.19;5021994;28;20054;-43
2023/11/25 04:58:52;;;;;;;3.50;2.15;;;;;;;-0.48;71.55;100765.81;5023770;28;20136;-51
2023/11/25 05:01:19;;;;;;;4.40;2.17;;;;;;;-0.48;71.13;100770.88;5027552;28;20045;-42
2023/11/25 05:03:47;;;;;;;4.47;2.70;;;;;;;-0.52;71.13;100768.16;5025907;28;20455;-45
2023/11/25 05:06:13;;;;;;;5.88;1.85;;;;;;;-0.54;71.77;100757.03;5022731;28;20049;-42
2023/11/25 05:08:41;;;;;;;12.48;3.47;;;;;;;-0.55;71.29;100755.28;5023298;28;20792;-49
2023/11/25 05:11:08;;;;;;;5.35;2.25;;;;;;;-0.54;71.46;100763.81;5027109;28;20155;-42
2023/11/25 05:13:36;;;;;;;3.33;3.03;;;;;;;-0.56;71.52;100758.63;5021429;28;20522;-49
2023/11/25 05:16:05;;;;;;;5.18;3.67;;;;;;;-0.57;71.67;100766.16;5027956;28;20458;-40
2023/11/25 05:18:31;;;;;;;9.02;3.58;;;;;;;-0.58;71.22;100765.28;5022493;28;20103;-42
2023/11/25 05:20:58;;;;;;;5.35;2.28;;;;;;;-0.60;71.21;100771.97;5022310;28;20041;-48
2023/11/25 05:23:25;;;;;;;4.50;2.72;;;;;;;-0.60;71.00;100766.88;5023989;28;20053;-41
2023/11/25 05:25:54;;;;;;;5.65;2.15;;;;;;;-0.61;71.13;100770.19;5024947;28;20077;-44
2023/11/25 05:28:22;;;;;;;4.82;2.80;;;;;;;-0.63;71.00;100756.53;5019811;28;20494;-43
2023/11/25 05:30:48;;;;;;;9.40;3.30;;;;;;;-0.63;71.25;100750.56;5022746;28;20716;-45
2023/11/25 05:33:15;;;;;;;3.05;1.48;;;;;;;-0.66;71.45;100754.72;5019224;28;20057;-43
2023/11/25 05:35:42;;;;;;;3.35;1.38;;;;;;;-0.67;71.53;100759.72;5020248;28;20049;-40
2023/11/25 05:38:09;;;;;;;10.57;1.95;;;;;;;-0.69;71.06;100746.00;5024256;28;20045;-46
2023/11/25 05:40:37;;;;;;;4.00;1.60;;;;;;;-0.69;71.22;100746.00;5023431;28;20056;-48
2023/11/25 05:43:04;;;;;;;2.67;2.38;;;;;;;-0.69;71.04;100743.47;5022253;28;20056;-48
2023/11/25 05:45:34;;;;;;;2.42;0.77;;;;;;;-0.70;71.46;100746.81;5025962;28;20068;-45
2023/11/25 05:48:01;;;;;;;7.07;1.55;;;;;;;-0.72;71.05;100750.94;5022565;28;20045;-48
2023/11/25 05:50:27;;;;;;;2.40;1.67;;;;;;;-0.73;71.41;100749.19;5024416;28;20177;-43
2023/11/25 05:52:55;;;;;;;6.65;3.20;;;;;;;-0.72;71.41;100743.28;5026537;28;20049;-41
2023/11/25 05:55:22;;;;;;;3.88;1.63;;;;;;;-0.73;71.92;100744.09;5027348;28;20103;-46
2023/11/25 05:57:50;;;;;;;10.95;2.67;;;;;;;-0.74;71.21;100747.44;5024985;28;20516;-45
2023/11/25 06:00:19;;;;;;;5.13;2.58;;;;;;;-0.76;71.62;100739.72;5027737;28;20383;-41
2023/11/25 06:02:46;;;;;;;4.47;1.30;;;;;;;-0.76;71.47;100744.81;5025938;28;20521;-45
2023/11/25 06:05:13;;;;;;;6.85;2.97;;;;;;;-0.78;71.41;100742.19;5029499;28;20056;-48
2023/11/25 06:07:40;;;;;;;2.85;2.33;;;;;;;-0.77;71.53;100743.06;5039024;28;20041;-50
2023/11/25 06:10:09;;;;;;;5.18;2.78;;;;;;;-0.76;71.37;100743.91;5025868;28;20041;-41
2023/11/25 06:12:37;;;;;;;5.32;1.10;;;;;;;-0.78;71.44;100747.25;5026872;28;20107;-44
2023/11/25 06:15:05;;;;;;;9.07;1.58;;;;;;;-0.78;71.36;100742.19;5026568;28;20494;-46
2023/11/25 06:17:32;;;;;;;3.13;2.15;;;;;;;-0.81;71.40;100742.00;5025901;28;20053;-46
2023/11/25 06:19:59;;;;;;;2.83;2.47;;;;;;;-0.81;70.72;100742.00;5025609;28;20060;-47
2023/11/25 06:22:25;;;;;;;2.97;2.28;;;;;;;-0.83;71.46;100738.53;5027502;28;20057;-44
2023/11/25 06:24:52;;;;;;;4.80;1.52;;;;;;;-0.84;71.47;100738.44;5027169;28;20064;-45
2023/11/25 06:27:21;;;;;;;11.70;5.45;;;;;;;-0.86;71.52;100735.81;5026227;28;20045;-45
2023/11/25 06:29:49;;;;;;;4.28;1.52;;;;;;;-0.86;71.34;100735.81;5029002;28;20045;-44
2023/11/25 06:32:16;;;;;;;2.88;1.38;;;;;;;-0.91;71.86;100725.38;5031477;28;20052;-46
2023/11/25 06:34:43;;;;;;;4.60;1.38;;;;;;;-0.86;71.64;100722.19;5027951;28;20056;-47
2023/11/25 06:37:10;;;;;;;4.07;1.23;;;;;;;-0.85;71.19;100723.97;5031239;28;20053;-44
2023/11/25 06:39:36;;;;;;;4.25;1.63;;;;;;;-0.86;71.55;100722.19;5040673;28;20075;-47
2023/11/25 06:42:07;;;;;;;12.13;5.53;;;;;;;-0.86;71.27;100730.72;5030976;28;20540;-43
2023/11/25 06:44:34;;;;;;;11.65;4.63;;;;;;;-0.87;71.31;100721.34;5029146;28;20052;-40
2023/11/25 06:47:00;;;;;;;1.52;1.42;;;;;;;-0.89;71.59;100717.81;5021017;28;20124;-45
2023/11/25 06:49:27;;;;;;;3.05;2.28;;;;;;;-0.89;71.96;100712.72;5022760;28;20418;-42
2023/11/25 06:51:54;;;;;;;8.48;3.00;;;;;;;-0.87;71.94;100710.28;5028226;28;20457;-42
2023/11/25 06:54:23;;;;;;;7.85;2.00;;;;;;;-0.86;71.18;100710.38;5030109;28;20600;-43
2023/11/25 06:56:51;;;;;;;1.63;0.57;;;;;;;-0.86;71.50;100717.09;5027781;28;20049;-44
2023/11/25 06:59:17;;;;;;;2.53;2.33;;;;;;;-0.87;71.76;100707.75;5025079;28;20042;-39
2023/11/25 07:01:45;;;;;;;2.58;1.27;;;;;;;-0.88;71.49;100706.84;5025960;28;20072;-43
2023/11/25 07:04:13;;;;;;;3.88;2.47;;;;;;;-0.89;71.77;100712.72;5033108;28;20490;-42
2023/11/25 07:06:40;;;;;;;2.72;2.53;;;;;;;-0.91;71.45;100719.44;5038791;28;20049;-45
2023/11/25 07:09:09;;;;;;;4.70;1.77;;;;;;;-0.92;71.38;100722.72;5033299;28;20063;-47
2023/11/25 07:11:37;;;;;;;6.43;2.15;;;;;;;-0.91;71.46;100719.44;5030285;28;20049;-43
2023/11/25 07:14:05;;;;;;;5.30;2.75;;;;;;;-0.92;71.43;100717.66;5022625;28;20129;-41
2023/11/25 07:16:33;;;;;;;2.13;1.40;;;;;;;-0.92;71.20;100717.66;5028800;28;20418;-46
2023/11/25 07:19:00;;;;;;;2.08;0.85;;;;;;;-0.92;71.49;100712.56;5027346;28;20075;-45
2023/11/25 07:21:27;;;;;;;1.38;0.70;;;;;;;-0.91;71.38;100706.72;5030641;28;20048;-44
2023/11/25 07:23:55;;;;;;;7.07;1.42;;;;;;;-0.93;71.37;100705.72;5025894;28;20038;-45
2023/11/25 07:26:22;;;;;;;10.60;1.15;;;;;;;-0.92;71.74;100710.03;5021068;28;20041;-42
2023/11/25 07:28:49;;;;;;;8.32;1.08;;;;;;;-0.90;71.25;100711.00;5019639;28;20049;-40
2023/11/25 07:31:16;;;;;;;5.70;1.98;;;;;;;-0.89;71.53;100717.81;5021547;28;20689;-42
2023/11/25 07:33:43;;;;;;;3.47;0.70;;;;;;;-0.88;71.46;100723.78;5020589;28;20100;-41
2023/11/25 07:36:09;;;;;;;8.38;0.90;;;;;;;-0.88;71.56;100722.09;5021614;28;20053;-45
2023/11/25 07:38:36;;;;;;;2.13;1.77;;;;;;;-0.88;71.54;100717.03;5019909;28;20046;-43
2023/11/25 07:41:03;;;;;;;3.10;2.00;;;;;;;-0.89;71.44;100722.91;5021926;28;20449;-42
2023/11/25 07:43:31;;;;;;;6.30;3.05;;;;;;;-0.89;70.99;100733.09;5022026;28;20062;-49
2023/11/25 07:45:57;;;;;;;4.75;3.35;;;;;;;-0.89;71.61;100734.75;5022529;28;20075;-43
2023/11/25 07:48:24;;;;;;;1.95;1.30;;;;;;;-0.89;71.51;100735.63;5020625;28;20049;-44
2023/11/25 07:50:51;;;;;;;8.55;2.35;;;;;;;-0.87;71.15;100735.72;5024296;28;20064;-41
2023/11/25 07:53:19;;;;;;;7.30;1.52;;;;;;;-0.86;71.44;100733.25;5026899;28;20187;-42
2023/11/25 07:55:45;;;;;;;10.23;3.83;;;;;;;-0.79;71.35;100737.88;5027228;28;20044;-46
2023/11/25 07:58:12;;;;;;;8.70;4.03;;;;;;;-0.69;71.63;100738.38;5029784;28;20049;-46
2023/11/25 08:00:39;;;;;;;7.95;2.90;;;;;;;-0.62;71.35;100732.84;5036416;28;20045;-42
2023/11/25 08:03:06;;;;;;;14.88;4.40;;;;;;;-0.57;71.38;100741.59;5026740;28;20063;-46
2023/11/25 08:05:34;;;;;;;21.20;8.77;;;;;;;-0.52;71.25;100747.81;5029256;28;20050;-46
2023/11/25 08:08:03;;;;;;;20.40;7.63;;;;;;;-0.47;71.19;100747.19;5028867;28;20497;-46
2023/11/25 08:10:34;;;;;;;25.13;8.88;;;;;;;-0.42;71.13;100745.75;5030446;28;20123;-44
2023/11/25 08:13:01;;;;;;;10.63;5.25;;;;;;;-0.33;70.96;100742.81;5029598;28;20060;-48
2023/11/25 08:15:29;;;;;;;13.73;7.93;;;;;;;-0.22;71.30;100748.47;5035160;28;20051;-47
2023/11/25 08:17:58;;;;;;;14.75;6.18;;;;;;;-0.09;71.59;100744.91;5022914;28;20562;-45
2023/11/25 08:20:25;;;;;;;24.70;9.15;;;;;;;0.01;71.07;100746.25;5028076;28;20045;-43
2023/11/25 08:22:52;;;;;;;18.17;8.75;;;;;;;0.24;70.79;100750.84;5027725;28;20498;-47
2023/11/25 08:25:18;;;;;;;12.23;6.65;;;;;;;0.47;70.53;100743.47;5029193;28;20080;-44
2023/11/25 08:27:45;;;;;;;17.77;8.02;;;;;;;0.61;70.67;100745.84;5020148;28;20112;-41
2023/11/25 08:30:12;;;;;;;18.85;5.90;;;;;;;0.66;69.29;100746.94;5021287;28;20045;-48
2023/11/25 08:32:41;;;;;;;14.90;6.05;;;;;;;0.66;69.67;100746.94;5022468;28;20045;-48
2023/11/25 08:35:09;;;;;;;9.27;3.95;;;;;;;0.66;69.41;100744.38;5020415;28;20046;-48
2023/11/25 08:37:38;;;;;;;10.75;5.57;;;;;;;0.67;69.79;100745.28;5026288;28;20052;-46
2023/11/25 08:40:09;;;;;;;10.80;4.10;;;;;;;0.83;70.53;100746.88;5025558;28;20041;-45
2023/11/25 08:42:36;;;;;;;8.18;4.05;;;;;;;1.04;71.13;100746.19;5025502;28;20486;-47
2023/11/25 08:45:03;;;;;;;11.52;4.05;;;;;;;1.14;70.22;100736.47;5025390;28;20494;-46
2023/11/25 08:47:29;;;;;;;7.25;3.40;;;;;;;1.20;69.41;100732.44;5023656;28;20076;-46
2023/11/25 08:49:56;;;;;;;11.43;4.78;;;;;;;1.26;70.05;100733.63;5027497;28;20084;-41
2023/11/25 08:52:24;;;;;;;12.85;4.95;;;;;;;1.39;70.78;100742.69;5025769;28;20050;-45
2023/11/25 08:54:52;;;;;;;11.27;5.18;;;;;;;1.65;70.78;100742.13;5022045;28;20140;-47
2023/11/25 08:57:20;;;;;;;12.63;5.35;;;;;;;2.21;71.15;100751.34;5026047;28;20041;-44
2023/11/25 08:59:48;;;;;;;16.85;5.28;;;;;;;2.76;70.19;100750.22;5024812;28;20795;-47
2023/11/25 09:02:21;;;;;;;12.45;6.72;;;;;;;3.11;69.45;100741.34;5018267;28;20396;-44
2023/11/25 09:04:49;;;;;;;7.60;4.78;;;;;;;3.33;68.21;100750.72;5025933;28;20049;-47
2023/11/25 09:07:32;;;;;;;7.30;4.05;;;;;;;3.73;68.94;100746.22;5024909;28;20592;-47
2023/11/25 09:10:05;;;;;;;7.72;3.17;;;;;;;4.37;69.16;100744.19;5025077;28;20136;-48
2023/11/25 09:12:31;;;;;;;10.05;3.67;;;;;;;5.21;68.37;100738.28;5020473;28;20061;-45
2023/11/25 09:14:59;;;;;;;9.63;3.75;;;;;;;6.29;69.02;100736.13;5021266;28;20057;-46
2023/11/25 09:17:26;;;;;;;6.53;3.60;;;;;;;7.38;67.60;100733.53;5021787;28;20922;-48
2023/11/25 09:19:53;;;;;;;9.82;3.90;;;;;;;8.44;66.21;100724.34;5020447;28;20045;-45
2023/11/25 09:22:19;;;;;;;11.82;3.78;;;;;;;9.33;64.61;100730.88;5018463;28;20079;-45
2023/11/25 09:24:46;;;;;;;6.40;3.63;;;;;;;10.16;63.43;100725.78;5013589;28;20052;-42
2023/11/25 09:27:13;;;;;;;7.38;2.63;;;;;;;10.73;60.78;100729.75;5026204;28;20056;-50
2023/11/25 09:29:42;;;;;;;10.20;4.30;;;;;;;11.28;61.30;100722.34;5018763;28;20399;-48
2023/11/25 09:32:10;;;;;;;11.45;5.78;;;;;;;11.87;60.01;100732.94;5018101;28;20054;-46
2023/11/25 09:34:38;;;;;;;9.45;4.10;;;;;;;12.52;58.91;100721.81;5020800;28;20415;-48
2023/11/25 09:37:07;;;;;;;8.52;3.28;;;;;;;13.02;57.65;100721.78;5013438;28;20060;-49
2023/11/25 09:39:34;;;;;;;7.80;2.60;;;;;;;13.42;56.72;100717.31;5020427;28;20536;-50
2023/11/25 09:42:02;;;;;;;5.95;2.83;;;;;;;13.82;55.96;100719.75;5030518;28;20050;-49
2023/11/25 09:44:30;;;;;;;5.78;2.63;;;;;;;14.18;54.68;100731.72;5023528;28;20108;-46
2023/11/25 09:46:57;;;;;;;7.82;3.10;;;;;;;14.69;54.72;100728.69;5021606;28;20049;-46
2023/11/25 09:49:24;;;;;;;6.45;2.95;;;;;;;15.15;53.77;100727.44;5022268;28;20077;-45
2023/11/25 09:51:52;;;;;;;10.05;3.92;;;;;;;15.54;52.44;100729.56;5022862;28;20053;-51
2023/11/25 09:54:22;;;;;;;22.80;9.68;;;;;;;15.85;51.23;100733.53;5022548;28;20128;-46
2023/11/25 09:56:50;;;;;;;18.83;6.43;;;;;;;16.04;50.18;100720.22;5022212;28;20054;-49
2023/11/25 09:59:18;;;;;;;8.43;5.35;;;;;;;16.23;49.70;100717.34;5018470;28;20045;-47
2023/11/25 10:01:45;;;;;;;9.18;4.72;;;;;;;16.39;49.20;100708.38;5017546;28;20073;-42
2023/11/25 10:04:14;;;;;;;8.13;2.83;;;;;;;16.52;48.07;100702.94;5013602;28;20080;-51
2023/11/25 10:06:41;;;;;;;8.52;6.72;;;;;;;16.51;47.46;100712.53;5021807;28;20636;-44
2023/11/25 10:09:10;;;;;;;9.27;5.18;;;;;;;16.42;47.35;100713.53;5019841;28;20461;-43
2023/11/25 10:11:42;;;;;;;7.40;3.55;;;;;;;16.36;46.38;100718.88;5029519;28;20076;-44
2023/11/25 10:14:13;;;;;;;7.40;3.58;;;;;;;16.28;46.44;100715.53;5032310;28;20091;-44
2023/11/25 10:16:43;;;;;;;4.45;2.05;;;;;;;16.25;45.33;100716.44;5024576;28;20108;-50
2023/11/25 10:19:20;;;;;;;3.85;1.48;;;;;;;16.11;44.84;100714.03;5023949;28;20053;-47
2023/11/25 10:21:49;;;;;;;8.88;2.10;;;;;;;15.90;45.29;100709.94;5026961;28;20053;-44
2023/11/25 10:24:17;;;;;;;4.57;2.33;;;;;;;15.68;44.47;100705.88;5025165;28;20051;-48
2023/11/25 10:26:44;;;;;;;6.47;3.35;;;;;;;15.60;44.64;100702.53;5024565;28;20041;-44
2023/11/25 10:29:13;;;;;;;6.20;2.05;;;;;;;15.31;44.34;100700.28;5026245;28;20050;-48
2023/11/25 10:31:41;;;;;;;6.85;2.88;;;;;;;14.77;44.78;100693.00;5029535;28;20045;-47
2023/11/25 10:34:10;;;;;;;6.85;2.78;;;;;;;14.09;45.32;100691.81;5013351;28;20499;-44
2023/11/25 10:36:39;;;;;;;6.28;2.45;;;;;;;13.40;46.16;100693.06;5026105;28;20103;-49
2023/11/25 10:39:08;;;;;;;4.60;2.30;;;;;;;12.76;47.37;100688.88;5026681;28;20045;-49
2023/11/25 10:41:39;;;;;;;12.00;3.63;;;;;;;12.26;47.62;100683.69;5024407;28;20052;-43
2023/11/25 10:44:07;;;;;;;8.68;3.72;;;;;;;11.80;47.64;100685.34;5028477;28;20046;-42
2023/11/25 10:46:40;;;;;;;5.60;2.47;;;;;;;11.38;48.12;100681.75;5025703;28;20080;-45
2023/11/25 10:49:08;;;;;;;5.95;2.65;;;;;;;11.05;48.42;100682.44;5021061;28;20543;-50
2023/11/25 10:51:39;;;;;;;4.90;2.80;;;;;;;10.62;48.75;100684.78;5029450;28;20184;-48
2023/11/25 10:54:08;;;;;;;4.20;1.65;;;;;;;10.25;50.10;100675.84;5030956;28;20046;-51
2023/11/25 10:56:36;;;;;;;3.70;1.65;;;;;;;9.88;49.75;100676.34;5038486;28;20609;-43
2023/11/25 10:59:05;;;;;;;5.30;1.88;;;;;;;9.58;50.57;100672.56;5028761;28;20076;-50
2023/11/25 11:01:40;;;;;;;4.20;2.17;;;;;;;9.29;51.27;100677.41;5025445;28;20057;-47
2023/11/25 11:06:53;;;;;;;5.25;2.97;;;;;;;8.78;52.64;100681.00;5051719;28;20392;-42
2023/11/25 11:09:25;;;;;;;9.45;2.92;;;;;;;8.63;52.40;100689.41;5020808;28;20045;-47
2023/11/25 11:11:57;;;;;;;5.03;2.60;;;;;;;8.40;52.90;100682.13;5029039;28;20136;-45
2023/11/25 11:14:28;;;;;;;4.85;2.55;;;;;;;8.29;52.20;100693.97;5041611;28;20914;-49
2023/11/25 11:19:39;;;;;;;2.63;0.77;;;;;;;7.94;53.90;100693.38;5033300;28;20394;-44
2023/11/25 11:22:10;;;;;;;4.28;1.80;;;;;;;7.92;54.67;100689.91;4998338;28;20058;-48
2023/11/25 11:27:31;;;;;;;8.05;2.15;;;;;;;8.03;54.68;100692.69;5009401;28;20408;-44
2023/11/25 11:30:13;;;;;;;6.88;2.10;;;;;;;8.25;53.60;100687.03;4993414;28;20484;-50
2023/11/25 11:32:41;;;;;;;6.55;1.88;;;;;;;8.38;53.75;100683.81;4999453;28;20052;-48
2023/11/25 11:35:12;;;;;;;5.97;2.15;;;;;;;8.28;53.42;100681.91;4994694;28;20058;-47
2023/11/25 11:37:48;;;;;;;7.75;2.63;;;;;;;8.17;53.45;100687.75;4995826;28;20057;-44
2023/11/25 11:40:20;;;;;;;4.95;2.28;;;;;;;8.00;53.47;100684.03;4993009;28;20220;-46